createdAt,value
2023-01-20T00:00:00.484Z,6.80
2023-01-20T00:02:45.813Z,7.32
2023-01-20T00:05:31.352Z,7.00
2023-01-20T00:08:16.781Z,7.60
2023-01-20T00:11:11.582Z,7.75
2023-01-20T00:13:58.580Z,7.30
2023-01-20T00:16:44.177Z,7.55
2023-01-20T00:19:29.553Z,8.25
2023-01-20T00:22:15.102Z,8.85
2023-01-20T00:25:00.594Z,9.45
2023-01-20T00:27:46.639Z,9.90
2023-01-20T00:30:32.220Z,13.30
2023-01-20T00:33:17.148Z,10.77
2023-01-20T00:36:02.543Z,11.77
2023-01-20T00:38:48.448Z,11.05
2023-01-20T00:41:33.799Z,13.30
2023-01-20T00:44:19.390Z,13.45
2023-01-20T00:47:04.820Z,14.10
2023-01-20T00:49:50.141Z,15.73
2023-01-20T00:52:35.408Z,15.68
2023-01-20T00:55:20.873Z,15.60
2023-01-20T00:58:06.253Z,14.85
2023-01-20T01:00:53.952Z,14.45
2023-01-20T01:03:39.565Z,14.93
2023-01-20T01:06:24.909Z,14.13
2023-01-20T01:09:10.552Z,13.38
2023-01-20T01:11:56.124Z,14.70
2023-01-20T01:14:41.392Z,14.18
2023-01-20T01:17:26.789Z,11.73
2023-01-20T01:20:13.516Z,12.52
2023-01-20T01:22:58.869Z,13.30
2023-01-20T01:25:44.451Z,11.88
2023-01-20T01:28:29.688Z,12.65
2023-01-20T01:31:16.382Z,10.70
2023-01-20T01:34:01.591Z,9.40
2023-01-20T01:36:46.964Z,10.18
2023-01-20T01:39:32.336Z,10.40
2023-01-20T01:42:22.398Z,8.88
2023-01-20T01:45:10.787Z,9.20
2023-01-20T01:48:07.789Z,9.80
2023-01-20T01:51:08.834Z,9.55
2023-01-20T01:53:57.644Z,10.35
2023-01-20T01:56:44.411Z,8.77
2023-01-20T01:59:29.883Z,9.60
2023-01-20T02:02:15.352Z,8.98
2023-01-20T02:05:02.904Z,9.85
2023-01-20T02:07:49.544Z,10.18
2023-01-20T02:10:34.865Z,10.10
2023-01-20T02:13:20.194Z,10.90
2023-01-20T02:16:17.653Z,11.60
2023-01-20T02:19:14.615Z,14.10
2023-01-20T02:22:21.973Z,15.40
2023-01-20T02:25:07.393Z,17.95
2023-01-20T02:28:30.205Z,21.30
2023-01-20T02:31:34.143Z,29.65
2023-01-20T02:34:32.005Z,28.05
2023-01-20T02:37:23.323Z,28.77
2023-01-20T02:40:38.985Z,34.38
2023-01-20T02:43:38.069Z,35.47
2023-01-20T02:46:34.617Z,34.83
2023-01-20T02:49:30.742Z,31.83
2023-01-20T02:52:22.281Z,34.28
2023-01-20T02:55:11.375Z,34.13
2023-01-20T02:58:01.941Z,38.50
2023-01-20T03:00:52.898Z,36.55
2023-01-20T03:03:42.178Z,37.83
2023-01-20T03:06:32.864Z,37.20
2023-01-20T03:09:23.529Z,37.42
2023-01-20T03:12:24.172Z,37.35
2023-01-20T03:15:10.828Z,34.55
2023-01-20T03:17:56.197Z,34.10
2023-01-20T03:20:41.600Z,35.00
2023-01-20T03:23:30.136Z,34.65
2023-01-20T03:26:17.698Z,33.70
2023-01-20T03:29:09.452Z,35.03
2023-01-20T03:32:00.480Z,33.75
2023-01-20T03:34:45.929Z,35.35
2023-01-20T03:37:31.764Z,34.17
2023-01-20T03:40:17.552Z,36.38
2023-01-20T03:43:19.117Z,37.45
2023-01-20T03:46:19.770Z,32.58
2023-01-20T03:49:29.062Z,32.60
2023-01-20T03:52:48.099Z,30.95
2023-01-20T03:55:44.238Z,28.60
2023-01-20T03:58:36.456Z,26.77
2023-01-20T04:01:25.040Z,30.60
2023-01-20T04:04:14.797Z,27.45
2023-01-20T04:07:01.020Z,24.58
2023-01-20T04:09:52.261Z,25.52
2023-01-20T04:12:37.648Z,25.88
2023-01-20T04:15:24.140Z,23.08
2023-01-20T04:18:22.429Z,23.55
2023-01-20T04:21:14.301Z,22.52
2023-01-20T04:24:07.023Z,22.27
2023-01-20T04:26:52.328Z,23.90
2023-01-20T04:29:37.842Z,25.45
2023-01-20T04:32:23.165Z,20.88
2023-01-20T04:35:13.761Z,22.35
2023-01-20T04:37:59.155Z,21.75
2023-01-20T04:40:44.489Z,23.50
2023-01-20T04:43:30.025Z,24.90
2023-01-20T04:46:16.313Z,26.75
2023-01-20T04:49:01.673Z,23.63
2023-01-20T04:51:47.224Z,22.98
2023-01-20T04:54:32.782Z,23.60
2023-01-20T04:57:18.235Z,25.05
2023-01-20T05:00:05.812Z,22.75
2023-01-20T05:02:51.231Z,22.55
2023-01-20T05:05:36.584Z,21.00
2023-01-20T05:08:22.135Z,24.83
2023-01-20T05:11:07.455Z,22.08
2023-01-20T05:13:52.950Z,23.27
2023-01-20T05:16:38.204Z,23.05
2023-01-20T05:19:23.612Z,23.25
2023-01-20T05:22:09.082Z,23.60
2023-01-20T05:24:54.302Z,22.55
2023-01-20T05:27:39.788Z,22.75
2023-01-20T05:30:25.570Z,22.05
2023-01-20T05:33:11.418Z,24.67
2023-01-20T05:35:56.852Z,22.83
2023-01-20T05:38:42.115Z,23.88
2023-01-20T05:41:27.619Z,22.98
2023-01-20T05:44:14.083Z,23.55
2023-01-20T05:46:59.647Z,26.08
2023-01-20T05:49:45.099Z,24.70
2023-01-20T05:52:30.580Z,26.23
2023-01-20T05:55:16.583Z,28.58
2023-01-20T05:58:03.283Z,32.17
2023-01-20T06:00:48.597Z,34.60
2023-01-20T06:03:34.645Z,34.17
2023-01-20T06:06:19.817Z,30.70
2023-01-20T06:09:06.714Z,30.35
2023-01-20T06:11:52.188Z,32.20
2023-01-20T06:14:37.621Z,31.02
2023-01-20T06:17:23.137Z,31.75
2023-01-20T06:20:10.687Z,30.67
2023-01-20T06:22:56.362Z,31.08
2023-01-20T06:25:42.097Z,37.83
2023-01-20T06:28:27.276Z,38.08
2023-01-20T06:31:15.303Z,38.95
2023-01-20T06:34:00.716Z,44.15
2023-01-20T06:36:46.057Z,45.30
2023-01-20T06:39:31.505Z,42.78
2023-01-20T06:42:17.048Z,42.90
2023-01-20T06:45:02.413Z,36.53
2023-01-20T06:47:50.997Z,42.00
2023-01-20T06:50:36.380Z,43.30
2023-01-20T06:53:21.902Z,43.67
2023-01-20T06:56:09.353Z,43.97
2023-01-20T06:58:54.680Z,52.10
2023-01-20T07:01:40.784Z,45.47
2023-01-20T07:04:26.175Z,44.45
2023-01-20T07:07:12.788Z,44.97
2023-01-20T07:09:58.053Z,48.28
2023-01-20T07:12:43.373Z,46.58
2023-01-20T07:15:28.788Z,47.25
2023-01-20T07:18:14.131Z,45.63
2023-01-20T07:21:00.307Z,44.28
2023-01-20T07:23:46.052Z,46.10
2023-01-20T07:26:31.808Z,44.80
2023-01-20T07:29:18.004Z,46.13
2023-01-20T07:32:03.969Z,44.25
2023-01-20T07:34:50.357Z,43.75
2023-01-20T07:37:36.010Z,43.40
2023-01-20T07:40:21.301Z,45.10
2023-01-20T07:43:06.765Z,42.67
2023-01-20T07:45:57.029Z,41.00
2023-01-20T07:48:42.493Z,43.97
2023-01-20T07:51:27.658Z,44.42
2023-01-20T07:54:13.243Z,44.97
2023-01-20T07:56:58.349Z,40.85
2023-01-20T07:59:43.731Z,42.78
2023-01-20T08:02:28.995Z,40.97
2023-01-20T08:05:14.797Z,43.65
2023-01-20T08:07:59.968Z,41.72
2023-01-20T08:10:47.719Z,39.78
2023-01-20T08:13:33.987Z,42.05
2023-01-20T08:16:19.628Z,42.15
2023-01-20T08:19:05.136Z,39.17
2023-01-20T08:21:50.681Z,36.80
2023-01-20T08:24:35.920Z,33.55
2023-01-20T08:27:21.245Z,37.47
2023-01-20T08:30:07.631Z,34.28
2023-01-20T08:32:53.231Z,35.33
2023-01-20T08:35:38.235Z,32.55
2023-01-20T08:38:23.587Z,33.83
2023-01-20T08:41:16.178Z,36.88
2023-01-20T08:44:04.466Z,31.58
2023-01-20T08:46:52.587Z,35.22
2023-01-20T08:49:37.836Z,30.77
2023-01-20T08:52:23.285Z,29.13
2023-01-20T08:55:09.711Z,29.75
2023-01-20T08:57:54.841Z,30.58
2023-01-20T09:00:40.300Z,27.90
2023-01-20T09:03:26.563Z,28.25
2023-01-20T09:06:12.608Z,26.05
2023-01-20T09:08:58.257Z,25.63
2023-01-20T09:11:50.393Z,26.60
2023-01-20T09:14:35.605Z,24.15
2023-01-20T09:17:21.085Z,23.10
2023-01-20T09:20:07.167Z,25.05
2023-01-20T09:22:52.378Z,23.90
2023-01-20T09:25:37.791Z,24.02
2023-01-20T09:28:23.302Z,23.35
2023-01-20T09:31:10.046Z,21.42
2023-01-20T09:33:55.830Z,22.38
2023-01-20T09:36:41.130Z,22.05
2023-01-20T09:39:45.113Z,20.73
2023-01-20T09:43:21.863Z,24.90
2023-01-20T09:46:26.311Z,20.85
2023-01-20T09:49:57.009Z,22.13
2023-01-20T09:53:02.698Z,22.38
2023-01-20T09:56:04.113Z,20.52
2023-01-20T09:59:13.208Z,23.10
2023-01-20T10:02:04.307Z,21.15
2023-01-20T10:04:57.290Z,19.65
2023-01-20T10:07:51.114Z,20.55
2023-01-20T10:11:00.283Z,19.95
2023-01-20T10:14:02.980Z,19.55
2023-01-20T10:20:09.976Z,17.33
2023-01-20T10:23:04.675Z,19.27
2023-01-20T10:25:58.645Z,17.40
2023-01-20T10:28:51.204Z,17.67
2023-01-20T10:34:42.374Z,15.20
2023-01-20T10:37:30.948Z,15.90
2023-01-20T10:40:36.942Z,17.08
2023-01-20T10:43:21.997Z,17.70
2023-01-20T10:46:35.443Z,20.08
2023-01-20T10:49:33.130Z,18.63
2023-01-20T10:52:53.849Z,17.25
2023-01-20T10:56:02.001Z,21.08
2023-01-20T10:58:47.612Z,20.92
2023-01-20T11:01:32.818Z,17.73
2023-01-20T11:04:22.015Z,18.30
2023-01-20T11:07:15.481Z,19.20
2023-01-20T11:10:18.357Z,18.75
2023-01-20T11:13:04.107Z,17.83
2023-01-20T11:16:03.879Z,18.48
2023-01-20T11:19:07.255Z,18.17
2023-01-20T11:21:52.541Z,18.15
2023-01-20T11:24:43.625Z,18.35
2023-01-20T11:27:37.032Z,18.50
2023-01-20T11:30:32.242Z,17.38
2023-01-20T11:33:23.642Z,17.92
2023-01-20T11:36:23.985Z,16.95
2023-01-20T11:39:29.300Z,15.75
2023-01-20T11:42:20.040Z,15.48
2023-01-20T11:45:21.571Z,15.30
2023-01-20T11:48:18.265Z,15.40
2023-01-20T11:51:04.173Z,16.15
2023-01-20T11:53:49.828Z,15.52
2023-01-20T11:56:41.968Z,13.43
2023-01-20T11:59:32.119Z,13.00
2023-01-20T12:02:24.058Z,12.98
2023-01-20T12:05:29.040Z,14.33
2023-01-20T12:08:26.249Z,13.13
2023-01-20T12:11:14.679Z,12.63
2023-01-20T12:14:29.460Z,13.32
2023-01-20T12:17:42.715Z,12.05
2023-01-20T12:20:55.017Z,13.35
2023-01-20T12:23:56.012Z,14.07
2023-01-20T12:26:41.673Z,13.20
2023-01-20T12:29:44.642Z,11.85
2023-01-20T12:32:33.064Z,13.40
2023-01-20T12:35:20.142Z,11.50
2023-01-20T12:38:11.785Z,11.23
2023-01-20T12:41:03.544Z,12.50
2023-01-20T12:44:19.821Z,11.30
2023-01-20T12:47:19.025Z,10.38
2023-01-20T12:50:32.027Z,11.13
2023-01-20T12:53:44.006Z,12.75
2023-01-20T12:57:03.148Z,13.88
2023-01-20T13:00:19.123Z,12.95
2023-01-20T13:03:47.165Z,12.98
2023-01-20T13:06:40.399Z,16.70
2023-01-20T13:09:40.270Z,14.38
2023-01-20T13:12:36.686Z,15.02
2023-01-20T13:15:39.825Z,13.65
2023-01-20T13:18:28.344Z,10.95
2023-01-20T13:21:20.842Z,12.07
2023-01-20T13:24:06.874Z,10.43
2023-01-20T13:26:52.709Z,11.45
2023-01-20T13:29:52.935Z,12.73
2023-01-20T13:33:08.480Z,13.10
2023-01-20T13:35:54.259Z,12.35
2023-01-20T13:38:39.752Z,14.93
2023-01-20T13:41:48.375Z,13.48
2023-01-20T13:44:42.399Z,13.77
2023-01-20T13:47:50.213Z,13.27
2023-01-20T13:50:37.355Z,13.43
2023-01-20T13:53:22.696Z,13.23
2023-01-20T13:56:30.074Z,14.20
2023-01-20T13:59:15.763Z,12.98
2023-01-20T14:02:17.640Z,14.05
2023-01-20T14:05:02.695Z,14.93
2023-01-20T14:07:48.129Z,15.65
2023-01-20T14:10:33.665Z,13.57
2023-01-20T14:13:22.441Z,15.73
2023-01-20T14:16:28.117Z,15.95
2023-01-20T14:19:32.697Z,16.95
2023-01-20T14:22:31.750Z,16.70
2023-01-20T14:25:25.558Z,21.48
2023-01-20T14:28:19.929Z,22.42
2023-01-20T14:31:37.587Z,25.00
2023-01-20T14:34:27.025Z,26.25
2023-01-20T14:37:24.743Z,25.23
2023-01-20T14:40:32.224Z,26.48
2023-01-20T14:43:19.488Z,27.02
2023-01-20T14:46:05.456Z,25.40
2023-01-20T14:48:52.798Z,27.77
2023-01-20T14:51:37.981Z,28.63
2023-01-20T14:54:30.883Z,27.95
2023-01-20T14:57:27.000Z,31.33
2023-01-20T15:00:25.645Z,30.30
2023-01-20T15:03:25.991Z,30.92
2023-01-20T15:06:10.966Z,28.38
2023-01-20T15:09:06.615Z,30.30
2023-01-20T15:11:52.362Z,33.55
2023-01-20T15:14:37.944Z,30.83
2023-01-20T15:17:23.371Z,32.80
2023-01-20T15:20:32.002Z,29.67
2023-01-20T15:23:22.099Z,28.52
2023-01-20T15:26:26.091Z,31.25
2023-01-20T15:29:29.365Z,31.25
2023-01-20T15:32:14.713Z,25.83
2023-01-20T15:35:00.092Z,27.98
2023-01-20T15:37:45.707Z,31.67
2023-01-20T15:40:30.730Z,26.75
2023-01-20T15:43:18.027Z,29.67
2023-01-20T15:46:12.852Z,28.05
2023-01-20T15:48:58.311Z,27.67
2023-01-20T15:51:44.837Z,25.40
2023-01-20T15:54:30.277Z,26.85
2023-01-20T15:57:17.801Z,26.42
2023-01-20T16:00:04.180Z,25.30
2023-01-20T16:02:57.250Z,24.23
2023-01-20T16:05:42.628Z,20.92
2023-01-20T16:08:36.820Z,18.85
2023-01-20T16:11:21.996Z,19.88
2023-01-20T16:14:07.249Z,21.40
2023-01-20T16:16:52.623Z,23.00
2023-01-20T16:19:38.157Z,22.10
2023-01-20T16:22:23.325Z,21.10
2023-01-20T16:25:09.183Z,22.15
2023-01-20T16:27:54.687Z,21.95
2023-01-20T16:30:41.021Z,23.67
2023-01-20T16:33:27.309Z,24.20
2023-01-20T16:36:14.291Z,23.65
2023-01-20T16:38:59.553Z,23.13
2023-01-20T16:41:48.888Z,22.65
2023-01-20T16:44:34.159Z,20.75
2023-01-20T16:47:19.564Z,21.35
2023-01-20T16:50:05.173Z,22.50
2023-01-20T16:52:50.542Z,19.88
2023-01-20T16:55:36.050Z,18.92
2023-01-20T16:58:21.293Z,19.40
2023-01-20T17:01:12.636Z,18.98
2023-01-20T17:04:03.165Z,17.42
2023-01-20T17:06:48.338Z,17.33
2023-01-20T17:09:33.878Z,16.23
2023-01-20T17:12:19.307Z,17.30
2023-01-20T17:15:05.276Z,16.23
2023-01-20T17:17:54.494Z,16.70
2023-01-20T17:20:39.716Z,17.80
2023-01-20T17:23:25.156Z,17.88
2023-01-20T17:26:10.609Z,19.17
2023-01-20T17:29:04.756Z,18.50
2023-01-20T17:31:50.353Z,20.95
2023-01-20T17:34:35.460Z,17.92
2023-01-20T17:37:20.884Z,20.52
2023-01-20T17:40:06.644Z,19.95
2023-01-20T17:42:55.042Z,18.95
2023-01-20T17:45:40.657Z,18.55
2023-01-20T17:48:27.169Z,20.90
2023-01-20T17:51:15.167Z,20.48
2023-01-20T17:54:03.917Z,20.90
2023-01-20T17:56:49.685Z,22.88
2023-01-20T17:59:34.977Z,23.67
2023-01-20T18:02:22.203Z,29.90
2023-01-20T18:05:08.190Z,25.15
2023-01-20T18:07:53.261Z,27.63
2023-01-20T18:10:38.725Z,25.48
2023-01-20T18:13:24.001Z,25.48
2023-01-20T18:16:12.358Z,27.90
2023-01-20T18:19:01.197Z,30.58
2023-01-20T18:21:46.463Z,29.95
2023-01-20T18:24:31.946Z,29.20
2023-01-20T18:27:19.037Z,30.45
2023-01-20T18:30:07.799Z,30.38
2023-01-20T18:32:53.261Z,30.35
2023-01-20T18:35:38.452Z,33.72
2023-01-20T18:38:23.901Z,32.83
2023-01-20T18:41:10.979Z,28.65
2023-01-20T18:43:57.388Z,34.30
2023-01-20T18:46:42.787Z,33.75
2023-01-20T18:49:27.816Z,33.22
2023-01-20T18:52:13.211Z,30.85
2023-01-20T18:54:58.733Z,28.63
2023-01-20T18:57:44.243Z,31.90
2023-01-20T19:00:30.269Z,29.35
2023-01-20T19:03:15.869Z,31.50
2023-01-20T19:06:16.433Z,32.15
2023-01-20T19:09:01.856Z,31.98
2023-01-20T19:11:47.550Z,31.13
2023-01-20T19:14:32.872Z,30.40
2023-01-20T19:17:18.597Z,34.55
2023-01-20T19:20:04.655Z,31.48
2023-01-20T19:22:50.107Z,31.27
2023-01-20T19:25:35.694Z,32.38
2023-01-20T19:28:21.134Z,30.70
2023-01-20T19:31:15.515Z,33.78
2023-01-20T19:34:01.085Z,32.15
2023-01-20T19:36:46.433Z,28.52
2023-01-20T19:39:31.936Z,32.80
2023-01-20T19:42:17.546Z,28.80
2023-01-20T19:45:02.961Z,33.08
2023-01-20T19:47:48.336Z,33.08
2023-01-20T19:50:33.953Z,31.25
2023-01-20T19:53:19.103Z,34.78
2023-01-20T19:56:14.313Z,27.95
2023-01-20T19:59:00.779Z,29.92
2023-01-20T20:01:46.180Z,31.33
2023-01-20T20:04:32.215Z,31.48
2023-01-20T20:07:17.816Z,28.40
2023-01-20T20:10:03.457Z,33.55
2023-01-20T20:12:48.861Z,30.92
2023-01-20T20:15:34.317Z,33.55
2023-01-20T20:18:19.776Z,31.92
2023-01-20T20:21:06.577Z,35.95
2023-01-20T20:23:53.869Z,39.45
2023-01-20T20:26:39.792Z,42.45
2023-01-20T20:29:25.457Z,37.67
2023-01-20T20:32:10.787Z,40.55
2023-01-20T20:34:58.534Z,40.35
2023-01-20T20:37:43.972Z,40.17
2023-01-20T20:40:29.548Z,38.05
2023-01-20T20:43:14.663Z,35.50
2023-01-20T20:46:04.808Z,42.55
2023-01-20T20:48:52.771Z,39.22
2023-01-20T20:51:38.131Z,41.10
2023-01-20T20:54:23.529Z,40.85
2023-01-20T20:57:08.858Z,37.83
2023-01-20T20:59:59.432Z,39.83
2023-01-20T21:02:45.151Z,44.20
2023-01-20T21:05:30.572Z,42.20
2023-01-20T21:08:16.546Z,39.50
2023-01-20T21:11:03.600Z,42.72
2023-01-20T21:13:49.355Z,42.70
2023-01-20T21:16:35.213Z,40.75
2023-01-20T21:19:20.638Z,38.03
2023-01-20T21:22:06.008Z,43.15
2023-01-20T21:24:51.276Z,45.30
2023-01-20T21:27:36.825Z,42.83
2023-01-20T21:30:22.416Z,39.33
2023-01-20T21:33:08.725Z,43.80
2023-01-20T21:35:54.082Z,42.55
2023-01-20T21:38:42.821Z,42.40
2023-01-20T21:41:28.280Z,37.75
2023-01-20T21:44:29.831Z,38.92
2023-01-20T21:47:14.988Z,36.90
2023-01-20T21:50:18.984Z,42.33
2023-01-20T21:53:04.258Z,37.78
2023-01-20T21:55:49.729Z,38.67
2023-01-20T21:58:35.339Z,39.05
2023-01-20T22:01:20.455Z,37.35
2023-01-20T22:04:06.398Z,41.33
2023-01-20T22:06:51.857Z,37.33
2023-01-20T22:09:37.516Z,38.45
2023-01-20T22:12:23.216Z,43.13
2023-01-20T22:15:08.799Z,42.20
2023-01-20T22:17:54.334Z,41.03
2023-01-20T22:20:39.712Z,43.75
2023-01-20T22:23:25.071Z,44.53
2023-01-20T22:26:10.856Z,45.00
2023-01-20T22:28:56.363Z,42.17
2023-01-20T22:31:41.810Z,44.10
2023-01-20T22:34:27.312Z,40.30
2023-01-20T22:37:12.828Z,38.45
2023-01-20T22:39:58.197Z,41.20
2023-01-20T22:42:43.705Z,41.47
2023-01-20T22:45:29.266Z,42.20
2023-01-20T22:48:14.762Z,43.15
2023-01-20T22:51:08.353Z,40.72
2023-01-20T22:53:55.319Z,40.65
2023-01-20T22:56:40.698Z,38.35
2023-01-20T22:59:26.116Z,39.03
2023-01-20T23:02:11.695Z,40.45
2023-01-20T23:04:57.167Z,43.03
2023-01-20T23:07:42.618Z,47.60
2023-01-20T23:10:46.212Z,49.22
2023-01-20T23:13:31.422Z,43.63
2023-01-20T23:16:19.868Z,45.95
2023-01-20T23:19:05.908Z,42.90
2023-01-20T23:21:51.178Z,45.47
2023-01-20T23:24:36.488Z,46.92
2023-01-20T23:27:21.727Z,48.90
2023-01-20T23:30:08.195Z,47.47
2023-01-20T23:32:53.667Z,44.90
2023-01-20T23:35:39.161Z,47.53
2023-01-20T23:38:24.354Z,45.75
2023-01-20T23:41:10.480Z,47.45
2023-01-20T23:43:56.044Z,44.47
2023-01-20T23:46:41.389Z,44.95
2023-01-20T23:49:27.079Z,44.22
2023-01-20T23:52:12.289Z,44.25
2023-01-20T23:54:57.725Z,45.80
2023-01-20T23:57:43.043Z,45.72
